Time;durP1;ratioP1;P1;durP2;ratioP2;P2;SDS_P1;SDS_P2;PMS_P1;PMS_P2;Temp;Humidity;BMP_temperature;BMP_pressure;BME280_temperature;BME280_humidity;BME280_pressure;Samples;Min_cycle;Max_cycle;Signal;HPM_P1;HPM_P2
2023/02/14 00:01:49;;;;;;;8.30;4.80;;;;;;;4.08;83.46;102599.34;5040426;28;20032;-71
2023/02/14 00:04:15;;;;;;;7.00;4.57;;;;;;;4.00;83.78;102599.59;5040070;28;20033;-71
2023/02/14 00:06:41;;;;;;;9.25;4.75;;;;;;;3.91;84.41;102599.91;5040795;28;20052;-71
2023/02/14 00:09:11;;;;;;;7.60;3.80;;;;;;;3.82;84.72;102595.88;5038410;28;20037;-71
2023/02/14 00:11:37;;;;;;;8.77;4.82;;;;;;;3.80;84.69;102591.66;5040962;28;20535;-71
2023/02/14 00:16:46;;;;;;;7.40;4.13;;;;;;;3.82;84.88;102577.84;5042945;28;20040;-71
2023/02/14 00:19:14;;;;;;;9.60;4.43;;;;;;;3.79;85.06;102583.09;5038885;28;20037;-71
2023/02/14 00:21:40;;;;;;;8.10;4.93;;;;;;;3.69;85.03;102581.72;5044613;28;20150;-71
2023/02/14 00:24:17;;;;;;;9.43;5.00;;;;;;;3.56;86.44;102581.25;5044146;28;20033;-71
2023/02/14 00:26:43;;;;;;;8.75;5.00;;;;;;;3.63;85.72;102581.91;5048126;28;20036;-71
2023/02/14 00:29:11;;;;;;;9.55;4.55;;;;;;;3.70;85.58;102583.41;5048917;28;20032;-71
2023/02/14 00:31:37;;;;;;;8.80;4.68;;;;;;;3.70;85.73;102574.84;5049198;28;20036;-71
2023/02/14 00:34:04;;;;;;;8.77;4.22;;;;;;;3.70;85.72;102574.84;5050572;28;20025;-71
2023/02/14 00:36:30;;;;;;;9.65;4.95;;;;;;;3.77;85.59;102578.91;5041613;28;20124;-71
2023/02/14 00:38:55;;;;;;;9.32;4.57;;;;;;;3.79;84.87;102574.50;5050855;28;20415;-71
2023/02/14 00:41:21;;;;;;;7.65;3.72;;;;;;;3.74;85.16;102574.69;5050067;28;20114;-71
2023/02/14 00:43:51;;;;;;;12.20;4.22;;;;;;;3.71;85.32;102573.94;5050780;28;20128;-71
2023/02/14 00:46:17;;;;;;;7.78;4.68;;;;;;;3.64;85.95;102578.44;5051034;28;20037;-71
2023/02/14 00:48:43;;;;;;;10.95;5.03;;;;;;;3.63;86.17;102574.19;5042901;28;20403;-71
2023/02/14 00:51:09;;;;;;;10.95;5.47;;;;;;;3.58;86.04;102583.78;5044020;28;20033;-71
2023/02/14 00:53:35;;;;;;;9.40;5.15;;;;;;;3.56;86.31;102580.41;5032284;28;20041;-71
2023/02/14 00:56:02;;;;;;;8.02;5.13;;;;;;;3.64;85.51;102594.75;5035145;28;20539;-71
2023/02/14 00:58:28;;;;;;;10.50;5.72;;;;;;;3.52;85.84;102592.56;5041477;28;20064;-71
2023/02/14 01:00:53;;;;;;;7.40;5.05;;;;;;;3.33;86.44;102591.41;5033169;28;20076;-71
2023/02/14 01:03:19;;;;;;;11.38;5.05;;;;;;;3.34;86.79;102595.69;5032958;28;20041;-71
2023/02/14 01:05:45;;;;;;;10.27;6.20;;;;;;;3.22;86.72;102596.06;5039192;28;20046;-71
2023/02/14 01:08:11;;;;;;;12.38;7.43;;;;;;;3.11;87.44;102593.81;5033695;28;20128;-71
2023/02/14 01:10:36;;;;;;;14.43;6.80;;;;;;;2.91;88.21;102590.97;5033854;28;20109;-71
2023/02/14 01:13:02;;;;;;;15.88;7.28;;;;;;;2.75;88.50;102595.72;5034318;28;20038;-71
2023/02/14 01:15:29;;;;;;;15.57;7.43;;;;;;;2.56;89.36;102599.66;5034513;28;20037;-71
2023/02/14 01:17:54;;;;;;;14.20;8.85;;;;;;;2.37;90.11;102598.47;5034966;28;20095;-71
2023/02/14 01:20:20;;;;;;;14.63;9.02;;;;;;;2.33;90.81;102596.00;5046236;28;20464;-71
2023/02/14 01:22:45;;;;;;;14.48;8.85;;;;;;;2.12;91.89;102604.25;5034664;28;20118;-71
2023/02/14 01:25:11;;;;;;;13.20;8.75;;;;;;;2.10;92.77;102598.28;5041373;28;20029;-71
2023/02/14 01:27:36;;;;;;;14.75;7.22;;;;;;;2.38;91.71;102588.13;5036187;28;20032;-71
2023/02/14 01:30:02;;;;;;;11.10;4.53;;;;;;;2.82;90.63;102598.97;5041590;28;20047;-71
2023/02/14 01:32:30;;;;;;;11.13;5.25;;;;;;;2.87;89.48;102590.19;5036027;28;20033;-70
2023/02/14 01:34:56;;;;;;;12.07;7.03;;;;;;;2.69;89.64;102579.59;5039266;28;20048;-71
2023/02/14 01:37:21;;;;;;;12.75;7.18;;;;;;;2.53;90.49;102581.72;5041800;28;20026;-71
2023/02/14 01:39:46;;;;;;;11.38;5.18;;;;;;;2.60;90.74;102585.84;5037615;28;20020;-71
2023/02/14 01:42:12;;;;;;;9.32;4.30;;;;;;;2.86;90.83;102582.50;5036517;28;20120;-71
2023/02/14 01:44:37;;;;;;;7.53;4.57;;;;;;;3.12;89.08;102589.50;5038048;28;20037;-71
2023/02/14 01:47:07;;;;;;;12.02;5.35;;;;;;;3.20;88.95;102587.53;5037835;28;20029;-71
2023/02/14 01:49:37;;;;;;;13.88;6.18;;;;;;;3.07;88.59;102583.63;5039385;28;20125;-71
2023/02/14 01:52:10;;;;;;;12.93;5.43;;;;;;;3.07;89.33;102581.06;5043778;28;20029;-71
2023/02/14 01:54:47;;;;;;;8.23;4.07;;;;;;;3.14;89.93;102573.13;5038957;28;20034;-71
2023/02/14 01:57:16;;;;;;;10.55;4.47;;;;;;;3.22;89.15;102575.47;5043436;28;20051;-71
2023/02/14 01:59:49;;;;;;;8.82;4.38;;;;;;;3.16;89.69;102578.22;5040718;28;20049;-71
2023/02/14 02:02:22;;;;;;;8.77;4.65;;;;;;;3.18;89.86;102581.59;5041667;28;20040;-71
2023/02/14 02:04:49;;;;;;;10.73;4.85;;;;;;;3.12;90.26;102568.91;5042573;28;20050;-71
2023/02/14 02:07:22;;;;;;;8.85;4.32;;;;;;;3.08;90.69;102567.28;5037983;28;20120;-71
2023/02/14 02:09:57;;;;;;;12.30;5.40;;;;;;;3.06;90.75;102556.19;5042618;28;20033;-71
2023/02/14 02:12:23;;;;;;;10.40;4.30;;;;;;;3.10;90.06;102555.22;5037927;28;20029;-71
2023/02/14 02:14:52;;;;;;;8.75;4.65;;;;;;;3.08;90.89;102554.41;5041763;28;20039;-71
2023/02/14 02:17:36;;;;;;;7.93;4.43;;;;;;;3.05;90.57;102554.50;5041790;28;20029;-71
2023/02/14 02:20:44;;;;;;;9.20;4.53;;;;;;;2.96;91.35;102553.88;5042862;28;20072;-71
2023/02/14 02:23:46;;;;;;;8.90;4.07;;;;;;;2.92;91.56;102556.59;5039093;28;20040;-71
2023/02/14 02:26:30;;;;;;;8.27;4.50;;;;;;;2.86;91.00;102557.63;5040453;28;21524;-71
2023/02/14 02:29:21;;;;;;;7.68;4.50;;;;;;;3.04;90.80;102545.94;5049017;28;20068;-71
2023/02/14 02:31:50;;;;;;;6.03;3.65;;;;;;;3.15;90.13;102558.50;5040948;28;20479;-71
2023/02/14 02:34:52;;;;;;;9.07;4.50;;;;;;;3.16;89.93;102553.31;5041221;28;20084;-71
2023/02/14 02:37:25;;;;;;;13.48;4.90;;;;;;;3.13;90.15;102545.66;5042983;28;20041;-71
2023/02/14 02:39:56;;;;;;;8.73;4.60;;;;;;;3.12;90.38;102543.13;5045604;28;20029;-71
2023/02/14 02:42:28;;;;;;;7.38;4.38;;;;;;;3.11;90.15;102538.88;5040292;28;20029;-71
2023/02/14 02:45:02;;;;;;;8.65;4.05;;;;;;;3.15;90.08;102543.88;5040925;28;20116;-71
2023/02/14 02:47:35;;;;;;;9.30;4.80;;;;;;;3.08;90.07;102537.22;5042717;28;20026;-71
2023/02/14 02:53:05;;;;;;;7.20;4.55;;;;;;;3.04;90.76;102534.78;5042378;28;20392;-71
2023/02/14 02:58:59;;;;;;;6.50;3.95;;;;;;;2.99;90.59;102532.34;5045675;28;20039;-72
2023/02/14 03:01:38;;;;;;;7.70;4.13;;;;;;;3.01;91.15;102530.56;5043701;28;20029;-71
2023/02/14 03:06:55;;;;;;;7.88;4.53;;;;;;;2.99;90.40;102525.47;5042462;28;20043;-71
2023/02/14 03:09:26;;;;;;;10.05;4.63;;;;;;;2.93;90.96;102524.81;5044370;28;20483;-71
2023/02/14 03:12:19;;;;;;;8.00;4.53;;;;;;;2.89;91.17;102536.94;5042346;28;20329;-71
2023/02/14 03:14:55;;;;;;;10.35;4.10;;;;;;;2.92;90.97;102520.53;5044685;28;20067;-71
2023/02/14 03:17:27;;;;;;;;;;;;;;;2.86;92.07;102531.03;5043861;28;20036;-71
2023/02/14 03:20:15;;;;;;;6.10;4.13;;;;;;;3.00;91.09;102528.88;5041644;28;19916;-71
2023/02/14 03:22:49;;;;;;;10.25;4.07;;;;;;;3.01;90.33;102525.44;5044548;28;20646;-71
2023/02/14 03:25:38;;;;;;;6.30;3.58;;;;;;;2.99;90.09;102522.91;5044724;28;20401;-71
2023/02/14 03:28:13;;;;;;;7.70;4.07;;;;;;;3.06;90.22;102523.56;5042904;28;20086;-71
2023/02/14 03:30:45;;;;;;;6.82;3.45;;;;;;;3.13;89.72;102524.22;5044991;28;20026;-71
2023/02/14 03:33:26;;;;;;;6.75;3.83;;;;;;;3.12;89.70;102518.22;5046725;28;20028;-71
2023/02/14 03:35:54;;;;;;;10.93;4.85;;;;;;;3.08;89.71;102523.50;5037286;28;20036;-71
2023/02/14 03:38:43;;;;;;;11.30;5.18;;;;;;;3.10;89.72;102527.72;5039462;28;20026;-71
2023/02/14 03:41:15;;;;;;;6.85;4.20;;;;;;;3.05;90.45;102518.47;5037753;28;20047;-71
2023/02/14 03:43:58;;;;;;;10.63;4.55;;;;;;;3.01;90.75;102525.44;5046433;28;20033;-71
2023/02/14 03:46:23;;;;;;;9.35;4.20;;;;;;;3.00;90.14;102523.75;5045823;28;20036;-71
2023/02/14 03:48:51;;;;;;;10.25;4.80;;;;;;;3.00;90.63;102516.84;5047673;28;20032;-71
2023/02/14 03:51:19;;;;;;;6.22;3.88;;;;;;;3.02;90.59;102515.97;5047564;28;20337;-71
2023/02/14 03:53:48;;;;;;;7.85;4.43;;;;;;;3.00;90.62;102516.00;5044975;28;20028;-71
2023/02/14 03:56:25;;;;;;;7.15;3.92;;;;;;;2.95;90.59;102507.59;5040342;28;20033;-71
2023/02/14 03:58:57;;;;;;;9.65;4.72;;;;;;;2.94;91.04;102511.03;5036243;28;20040;-71
2023/02/14 04:01:29;;;;;;;9.13;4.72;;;;;;;2.87;91.02;102512.97;5028856;28;20358;-71
2023/02/14 04:03:56;;;;;;;7.78;4.50;;;;;;;2.86;91.39;102516.41;5037369;28;20029;-72
2023/02/14 04:06:22;;;;;;;7.80;4.25;;;;;;;2.87;91.63;102509.53;5044182;28;20136;-71
2023/02/14 04:08:48;;;;;;;8.32;4.45;;;;;;;2.85;91.90;102516.47;5038433;28;20056;-71
2023/02/14 04:11:14;;;;;;;8.88;4.85;;;;;;;2.84;91.73;102515.63;5028714;28;20044;-71
2023/02/14 04:13:39;;;;;;;7.50;3.88;;;;;;;2.82;91.75;102517.44;5031389;28;20025;-71
2023/02/14 04:16:05;;;;;;;7.78;4.20;;;;;;;2.80;91.38;102513.22;5035972;28;20469;-71
2023/02/14 04:21:15;;;;;;;6.07;4.03;;;;;;;2.86;91.67;102516.41;5031242;28;20076;-71
2023/02/14 04:23:41;;;;;;;9.80;4.30;;;;;;;2.95;90.52;102507.59;5037081;28;20473;-71
2023/02/14 04:26:06;;;;;;;6.00;3.72;;;;;;;2.95;90.75;102505.00;5031050;28;20029;-71
2023/02/14 04:28:32;;;;;;;9.15;4.15;;;;;;;2.93;90.79;102505.06;5037908;28;20040;-71
2023/02/14 04:31:05;;;;;;;11.00;5.25;;;;;;;2.92;90.42;102503.38;5031231;28;20025;-71
2023/02/14 04:33:31;;;;;;;9.13;5.55;;;;;;;2.70;90.79;102497.19;5031297;28;20037;-71
2023/02/14 04:35:56;;;;;;;10.85;6.88;;;;;;;2.41;91.69;102503.16;5041124;28;20021;-71
2023/02/14 04:38:22;;;;;;;12.82;6.90;;;;;;;2.21;92.60;102501.13;5035767;28;20128;-71
2023/02/14 04:40:51;;;;;;;9.75;5.60;;;;;;;2.14;94.22;102491.91;5033500;28;20044;-71
2023/02/14 04:43:17;;;;;;;10.82;4.97;;;;;;;2.41;93.76;102494.59;5032277;28;20057;-71
2023/02/14 04:45:43;;;;;;;11.35;4.88;;;;;;;2.58;92.11;102492.38;5032961;28;20029;-71
2023/02/14 04:48:08;;;;;;;10.40;4.10;;;;;;;2.64;91.86;102495.63;5032925;28;20124;-71
2023/02/14 04:50:34;;;;;;;6.70;4.05;;;;;;;2.67;92.41;102495.53;5038394;28;20029;-71
2023/02/14 04:52:59;;;;;;;9.45;4.07;;;;;;;2.65;92.06;102497.31;5033198;28;20040;-71
2023/02/14 04:55:24;;;;;;;7.68;4.38;;;;;;;2.64;92.50;102500.78;5031130;28;20033;-71
2023/02/14 04:57:50;;;;;;;8.80;4.38;;;;;;;2.66;92.06;102493.84;5039633;28;20036;-71
2023/02/14 05:00:16;;;;;;;9.73;4.72;;;;;;;2.56;92.26;102497.56;5033684;28;20095;-71
2023/02/14 05:02:42;;;;;;;9.88;5.82;;;;;;;2.39;92.67;102489.47;5035150;28;20060;-71
2023/02/14 05:05:07;;;;;;;7.60;4.57;;;;;;;2.32;93.23;102483.69;5037842;28;20026;-71
2023/02/14 05:07:33;;;;;;;13.10;7.28;;;;;;;2.20;93.19;102483.19;5034403;28;20129;-71
2023/02/14 05:09:58;;;;;;;9.88;6.30;;;;;;;1.96;94.48;102476.94;5036645;28;20036;-72
2023/02/14 05:12:24;;;;;;;12.80;7.10;;;;;;;1.96;94.66;102484.66;5037401;28;20030;-71
2023/02/14 05:14:49;;;;;;;11.82;6.75;;;;;;;1.91;94.87;102476.22;5050210;28;20021;-71
2023/02/14 05:17:15;;;;;;;11.40;6.38;;;;;;;1.82;95.03;102474.75;5037806;28;20098;-71
2023/02/14 05:19:40;;;;;;;10.65;4.88;;;;;;;1.94;95.94;102478.72;5044212;28;20116;-71
2023/02/14 05:22:06;;;;;;;8.48;5.13;;;;;;;2.07;95.64;102474.94;5037172;28;20075;-71
2023/02/14 05:24:31;;;;;;;13.50;4.68;;;;;;;2.29;94.14;102475.22;5038443;28;20033;-71
2023/02/14 05:26:56;;;;;;;8.25;4.97;;;;;;;2.39;93.42;102474.03;5040450;28;20066;-71
2023/02/14 05:29:22;;;;;;;10.27;5.13;;;;;;;2.37;93.43;102486.09;5042920;28;20377;-71
2023/02/14 05:31:48;;;;;;;7.40;4.35;;;;;;;2.39;93.07;102481.75;5039774;28;20033;-70
2023/02/14 05:34:13;;;;;;;8.25;4.45;;;;;;;2.28;93.66;102487.22;5043157;28;20040;-71
2023/02/14 05:36:39;;;;;;;11.63;5.22;;;;;;;2.18;94.23;102485.78;5041911;28;20384;-71
2023/02/14 05:39:04;;;;;;;10.57;5.10;;;;;;;2.26;93.77;102485.59;5040544;28;20028;-71
2023/02/14 05:41:30;;;;;;;10.70;5.50;;;;;;;2.20;94.18;102486.59;5039948;28;20025;-71
2023/02/14 05:43:55;;;;;;;12.98;5.80;;;;;;;2.20;94.00;102494.31;5042955;28;20025;-71
2023/02/14 05:46:21;;;;;;;9.80;5.15;;;;;;;2.23;94.16;102491.66;5041723;28;20033;-71
2023/02/14 05:48:46;;;;;;;10.15;5.00;;;;;;;2.30;94.42;102489.75;5042974;28;20025;-71
2023/02/14 05:51:12;;;;;;;11.65;5.32;;;;;;;2.30;93.77;102493.19;5040458;28;20032;-70
2023/02/14 05:53:37;;;;;;;7.93;5.00;;;;;;;2.31;94.17;102497.44;5041232;28;20037;-71
2023/02/14 05:56:03;;;;;;;10.23;4.45;;;;;;;2.29;94.38;102491.50;5041272;28;20025;-73
2023/02/14 05:58:29;;;;;;;16.73;4.78;;;;;;;2.28;94.14;102491.53;5038838;28;20468;-71
2023/02/14 06:00:58;;;;;;;7.53;5.10;;;;;;;2.30;93.83;102492.34;5046107;28;20059;-71
2023/02/14 06:03:24;;;;;;;10.40;5.28;;;;;;;2.36;93.89;102502.47;5039397;28;20401;-71
2023/02/14 06:05:49;;;;;;;9.35;4.95;;;;;;;2.43;93.48;102492.81;5045676;28;20049;-71
2023/02/14 06:08:15;;;;;;;7.43;4.18;;;;;;;2.43;93.25;102485.94;5046501;28;20052;-71
2023/02/14 06:10:40;;;;;;;7.85;4.38;;;;;;;2.42;93.41;102491.97;5043322;28;20132;-71
2023/02/14 06:13:09;;;;;;;9.63;5.32;;;;;;;2.42;93.54;102494.53;5044683;28;20056;-71
2023/02/14 06:15:35;;;;;;;16.75;4.80;;;;;;;2.44;93.55;102486.78;5046634;28;20056;-71
2023/02/14 06:18:01;;;;;;;11.18;4.32;;;;;;;2.41;93.36;102487.72;5047306;28;20433;-71
2023/02/14 06:20:27;;;;;;;8.50;4.38;;;;;;;2.41;93.69;102494.59;5045000;28;20061;-71
2023/02/14 06:22:53;;;;;;;9.18;4.68;;;;;;;2.42;93.20;102494.53;5047513;28;20029;-71
2023/02/14 06:25:20;;;;;;;9.75;3.88;;;;;;;2.39;93.46;102488.63;5046608;28;20072;-71
2023/02/14 06:27:46;;;;;;;9.60;5.15;;;;;;;2.36;94.07;102489.59;5047083;28;20436;-71
2023/02/14 06:30:12;;;;;;;9.77;4.43;;;;;;;2.34;94.18;102488.78;5043031;28;20094;-71
2023/02/14 06:32:38;;;;;;;8.00;4.63;;;;;;;2.33;94.49;102493.09;5047227;28;20037;-72
2023/02/14 06:35:04;;;;;;;10.77;4.65;;;;;;;2.33;94.15;102493.09;5048907;28;20153;-72
2023/02/14 06:37:30;;;;;;;10.43;4.93;;;;;;;2.33;94.50;102493.09;5046384;28;20095;-72
2023/02/14 06:39:55;;;;;;;11.57;4.97;;;;;;;2.39;94.20;102504.06;5044121;28;20037;-73
2023/02/14 06:42:20;;;;;;;9.93;4.43;;;;;;;2.45;93.43;102494.47;5045450;28;20028;-73
2023/02/14 06:44:46;;;;;;;9.35;5.25;;;;;;;2.46;94.01;102496.16;5047741;28;20032;-73
2023/02/14 06:47:11;;;;;;;13.98;5.65;;;;;;;2.53;93.43;102501.97;5041766;28;20528;-72
2023/02/14 06:49:38;;;;;;;6.82;5.00;;;;;;;2.59;92.99;102501.78;5046828;28;20177;-72
2023/02/14 06:52:04;;;;;;;10.70;4.82;;;;;;;2.70;92.05;102507.47;5048985;28;20468;-72
2023/02/14 06:54:29;;;;;;;8.55;5.03;;;;;;;2.82;91.54;102503.72;5041642;28;20158;-73
2023/02/14 06:56:55;;;;;;;9.05;4.80;;;;;;;2.81;91.27;102505.44;5044170;28;20033;-73
2023/02/14 06:59:21;;;;;;;7.95;4.75;;;;;;;2.78;91.32;102494.38;5040008;28;20096;-73
2023/02/14 07:01:46;;;;;;;10.07;4.78;;;;;;;2.79;91.25;102507.22;5033628;28;20029;-72
2023/02/14 07:04:11;;;;;;;10.55;5.28;;;;;;;2.86;91.24;102500.13;5038511;28;20037;-72
2023/02/14 07:06:37;;;;;;;8.38;4.78;;;;;;;3.04;90.37;102509.03;5030721;28;20449;-72
2023/02/14 07:09:03;;;;;;;8.43;3.83;;;;;;;3.22;89.58;102508.50;5036954;28;20064;-72
2023/02/14 07:11:28;;;;;;;11.23;4.30;;;;;;;3.28;89.00;102508.31;5037399;28;20033;-72
2023/02/14 07:13:54;;;;;;;13.73;5.65;;;;;;;3.31;88.30;102503.03;5048818;28;20039;-72
2023/02/14 07:16:19;;;;;;;14.63;6.63;;;;;;;3.33;88.41;102499.50;5034324;28;20079;-72
2023/02/14 07:18:45;;;;;;;11.85;5.75;;;;;;;3.38;88.23;102504.50;5030729;28;20129;-72
2023/02/14 07:21:10;;;;;;;10.02;4.55;;;;;;;3.45;87.62;102507.75;5035827;28;20025;-72
2023/02/14 07:23:35;;;;;;;8.35;5.38;;;;;;;3.47;87.63;102506.81;5037008;28;20095;-72
2023/02/14 07:26:01;;;;;;;10.07;5.60;;;;;;;3.48;87.69;102508.50;5037854;28;20184;-72
2023/02/14 07:28:26;;;;;;;19.77;7.22;;;;;;;3.59;86.53;102503.00;5034544;28;20033;-71
2023/02/14 07:30:52;;;;;;;16.13;7.25;;;;;;;3.64;86.37;102512.25;5031575;28;20026;-71
2023/02/14 07:33:17;;;;;;;20.48;8.00;;;;;;;3.66;86.22;102505.31;5037528;28;20039;-71
2023/02/14 07:35:43;;;;;;;11.45;6.95;;;;;;;3.74;85.92;102506.81;5035389;28;20037;-72
2023/02/14 07:38:08;;;;;;;12.27;6.82;;;;;;;3.76;85.57;102507.59;5032227;28;20033;-71
2023/02/14 07:40:34;;;;;;;13.20;6.13;;;;;;;3.81;85.89;102503.94;5032552;28;20033;-71
2023/02/14 07:42:59;;;;;;;12.98;4.90;;;;;;;3.83;85.50;102504.75;5035066;28;20468;-72
2023/02/14 07:45:25;;;;;;;13.02;5.32;;;;;;;3.86;85.26;102509.78;5031920;28;20034;-71
2023/02/14 07:47:53;;;;;;;9.88;5.35;;;;;;;3.87;85.57;102508.06;5038665;28;20059;-71
2023/02/14 07:50:20;;;;;;;9.25;4.78;;;;;;;3.89;85.37;102507.13;5038556;28;20029;-71
2023/02/14 07:52:46;;;;;;;8.18;4.97;;;;;;;4.00;85.28;102499.00;5034293;28;20392;-71
2023/02/14 07:55:12;;;;;;;10.98;5.95;;;;;;;4.04;85.24;102510.06;5032803;28;20033;-71
2023/02/14 07:57:37;;;;;;;15.85;4.90;;;;;;;4.09;84.96;102501.28;5039428;28;20492;-71
2023/02/14 08:00:04;;;;;;;11.68;5.22;;;;;;;4.21;84.17;102498.28;5036849;28;20131;-71
2023/02/14 08:02:30;;;;;;;8.93;4.55;;;;;;;4.32;83.77;102490.13;5034408;28;20037;-71
2023/02/14 08:04:55;;;;;;;9.52;4.05;;;;;;;4.48;82.64;102488.69;5039663;28;20479;-71
2023/02/14 08:07:21;;;;;;;7.88;4.57;;;;;;;4.62;82.33;102491.59;5036380;28;20049;-71
2023/02/14 08:09:46;;;;;;;13.85;4.80;;;;;;;4.76;81.64;102483.31;5042844;28;20824;-71
2023/02/14 08:16:03;;;;;;;14.48;5.00;;;;;;;4.91;80.94;102472.41;5041364;28;20091;-72
2023/02/14 08:17:40;;;;;;;9.15;4.07;;;;;;;5.10;79.76;102474.28;5038491;28;20037;-71
2023/02/14 08:20:06;;;;;;;9.15;3.92;;;;;;;5.17;79.27;102480.91;5038558;28;20036;-72
2023/02/14 08:22:32;;;;;;;17.77;4.65;;;;;;;5.26;79.06;102475.34;5042742;28;20057;-71
2023/02/14 08:24:57;;;;;;;6.90;4.03;;;;;;;5.42;78.49;102473.81;5037964;28;20035;-71
2023/02/14 08:27:23;;;;;;;8.90;4.40;;;;;;;5.44;77.64;102474.59;5043224;28;20396;-71
2023/02/14 08:29:48;;;;;;;7.72;4.85;;;;;;;5.54;77.96;102468.16;5043768;28;20412;-71
2023/02/14 08:32:14;;;;;;;12.63;4.22;;;;;;;5.62;76.87;102473.00;5038675;28;20037;-71
2023/02/14 08:34:40;;;;;;;15.70;5.50;;;;;;;5.61;77.67;102474.75;5039628;28;20496;-72
2023/02/14 08:37:05;;;;;;;13.98;7.00;;;;;;;5.72;77.34;102473.44;5038399;28;20025;-71
2023/02/14 08:39:31;;;;;;;14.75;6.25;;;;;;;5.94;75.92;102469.91;5037564;28;20077;-72
2023/02/14 08:41:57;;;;;;;11.93;4.70;;;;;;;6.09;75.38;102467.59;5041009;28;20530;-72
2023/02/14 08:44:23;;;;;;;8.77;4.20;;;;;;;6.12;74.60;102462.28;5048260;28;20045;-70
2023/02/14 08:46:48;;;;;;;10.65;4.10;;;;;;;6.17;74.15;102470.66;5051260;28;20086;-70
2023/02/14 08:49:14;;;;;;;9.90;4.40;;;;;;;6.23;74.48;102470.38;5042928;28;20052;-70
2023/02/14 08:51:39;;;;;;;6.55;4.47;;;;;;;6.21;74.68;102467.03;5046795;28;20037;-70
2023/02/14 08:54:05;;;;;;;6.95;3.65;;;;;;;6.35;73.77;102464.66;5033364;28;20030;-69
2023/02/14 08:56:30;;;;;;;11.73;4.22;;;;;;;6.31;74.28;102460.53;5034426;28;20030;-69
2023/02/14 08:58:55;;;;;;;11.02;4.90;;;;;;;6.47;73.26;102463.28;5043115;28;20418;-69
2023/02/14 09:01:21;;;;;;;6.80;4.07;;;;;;;6.52;73.47;102451.81;5040559;28;20036;-68
2023/02/14 09:03:47;;;;;;;4.82;3.17;;;;;;;6.68;72.68;102457.09;5038965;28;20053;-69
2023/02/14 09:06:15;;;;;;;10.13;4.68;;;;;;;6.86;71.82;102455.41;5040281;28;20505;-69
2023/02/14 09:08:42;;;;;;;7.50;4.00;;;;;;;7.01;71.37;102456.44;5038576;28;20495;-69
2023/02/14 09:11:08;;;;;;;11.02;5.32;;;;;;;7.18;69.78;102453.84;5041546;28;20704;-70
2023/02/14 09:13:34;;;;;;;4.95;4.00;;;;;;;7.17;70.42;102454.78;5044125;28;20037;-70
2023/02/14 09:16:04;;;;;;;7.63;4.38;;;;;;;7.21;70.34;102461.50;5050706;28;20419;-70
2023/02/14 09:18:29;;;;;;;9.15;3.40;;;;;;;7.43;69.28;102454.34;5044317;28;20037;-69
2023/02/14 09:20:54;;;;;;;8.35;3.08;;;;;;;7.32;69.75;102459.22;5050860;28;20028;-67
2023/02/14 09:23:20;;;;;;;12.20;4.45;;;;;;;7.41;68.99;102452.75;5048439;28;20037;-69
2023/02/14 09:25:45;;;;;;;6.55;3.90;;;;;;;7.46;68.62;102450.78;5039254;28;20032;-67
2023/02/14 09:28:10;;;;;;;5.93;3.70;;;;;;;7.46;68.74;102451.59;5043264;28;20028;-67
2023/02/14 09:30:36;;;;;;;5.90;3.97;;;;;;;7.42;68.53;102439.69;5045350;28;20116;-67
2023/02/14 09:33:04;;;;;;;6.97;4.30;;;;;;;7.58;67.97;102445.78;5048290;28;20467;-70
2023/02/14 09:35:30;;;;;;;7.63;4.00;;;;;;;7.56;68.33;102445.03;5047026;28;20029;-70
2023/02/14 09:37:55;;;;;;;9.30;3.78;;;;;;;7.65;67.70;102447.16;5040679;28;20021;-68
2023/02/14 09:40:21;;;;;;;7.20;4.65;;;;;;;7.62;67.75;102443.88;5042603;28;20392;-69
2023/02/14 09:43:08;;;;;;;9.13;3.88;;;;;;;7.69;66.96;102447.00;5037697;28;20327;-69
2023/02/14 09:45:34;;;;;;;10.32;4.15;;;;;;;7.71;67.83;102442.56;5049022;28;20040;-69
2023/02/14 09:48:06;;;;;;;6.80;4.00;;;;;;;7.71;67.76;102447.75;5047815;28;20024;-69
2023/02/14 09:50:46;;;;;;;8.00;3.55;;;;;;;7.79;66.89;102443.88;5050194;28;20045;-68
2023/02/14 09:53:22;;;;;;;6.22;3.85;;;;;;;8.04;65.27;102443.41;5043638;28;20039;-68
2023/02/14 09:56:11;;;;;;;7.43;3.45;;;;;;;8.04;66.06;102443.41;5042560;28;20128;-69
2023/02/14 09:59:02;;;;;;;7.53;3.50;;;;;;;7.93;65.99;102436.22;5040686;28;20036;-69
2023/02/14 10:01:39;;;;;;;8.48;3.95;;;;;;;7.99;66.27;102435.06;5049776;28;20033;-69
2023/02/14 10:04:07;;;;;;;4.93;3.60;;;;;;;7.99;66.30;102435.06;5045086;28;20392;-68
2023/02/14 10:06:51;;;;;;;7.50;3.97;;;;;;;7.99;66.40;102429.88;5044267;28;20041;-69
2023/02/14 10:09:31;;;;;;;8.15;3.95;;;;;;;8.13;65.44;102431.72;5041880;28;20431;-69
2023/02/14 10:11:58;;;;;;;10.18;4.63;;;;;;;8.25;65.45;102416.34;5048761;28;20052;-69
2023/02/14 10:14:28;;;;;;;10.65;4.60;;;;;;;8.23;65.84;102419.94;5048333;28;20127;-69
2023/02/14 10:17:14;;;;;;;7.65;4.00;;;;;;;8.10;65.90;102414.53;5049850;28;20061;-68
2023/02/14 10:19:47;;;;;;;8.20;4.45;;;;;;;8.03;67.03;102409.78;5049851;28;20445;-68
2023/02/14 10:22:18;;;;;;;8.57;5.13;;;;;;;7.99;67.37;102407.34;5048144;28;20595;-68
2023/02/14 10:24:49;;;;;;;10.10;5.25;;;;;;;8.10;67.11;102411.94;5055272;28;20116;-68
2023/02/14 10:27:42;;;;;;;12.35;5.88;;;;;;;8.32;65.60;102396.06;5048726;28;20025;-68
2023/02/14 10:30:15;;;;;;;13.82;5.40;;;;;;;8.61;65.12;102402.28;5042365;28;20112;-68
2023/02/14 10:32:59;;;;;;;11.07;6.00;;;;;;;8.74;63.73;102392.91;5037836;28;20041;-69
2023/02/14 10:35:43;;;;;;;12.23;6.55;;;;;;;8.90;62.88;102385.06;5042562;28;20029;-69
2023/02/14 10:38:23;;;;;;;9.85;5.55;;;;;;;9.11;62.31;102385.59;5049571;28;20029;-69
2023/02/14 10:41:11;;;;;;;9.52;5.63;;;;;;;9.36;61.68;102375.44;5049110;28;20067;-68
2023/02/14 10:43:55;;;;;;;10.40;5.68;;;;;;;9.52;60.67;102373.59;5048967;28;20118;-69
2023/02/14 10:46:50;;;;;;;9.00;5.28;;;;;;;9.34;62.50;102359.09;5048333;28;20033;-69
2023/02/14 10:49:24;;;;;;;10.05;5.97;;;;;;;9.15;63.73;102363.69;5049386;28;20072;-68
2023/02/14 10:51:52;;;;;;;8.55;5.03;;;;;;;8.92;64.71;102362.44;5039608;28;20028;-68
2023/02/14 10:54:20;;;;;;;10.25;6.20;;;;;;;8.83;65.40;102356.00;5045397;28;20033;-69
2023/02/14 10:56:52;;;;;;;8.82;5.40;;;;;;;8.86;64.95;102348.03;5039839;28;20032;-69
2023/02/14 10:59:26;;;;;;;13.80;6.40;;;;;;;9.08;64.50;102345.00;5045659;28;20075;-69
2023/02/14 11:01:54;;;;;;;10.13;5.85;;;;;;;9.14;64.41;102349.00;5047688;28;20382;-69
2023/02/14 11:04:22;;;;;;;11.45;6.82;;;;;;;9.27;63.74;102340.41;5049223;28;20025;-69
2023/02/14 11:06:49;;;;;;;11.07;6.43;;;;;;;9.30;63.74;102336.78;5047299;28;20468;-69
2023/02/14 11:09:15;;;;;;;13.65;6.78;;;;;;;9.33;63.02;102336.59;5049238;28;20029;-69
2023/02/14 11:11:53;;;;;;;9.90;6.47;;;;;;;9.33;62.88;102334.00;5048698;28;20464;-69
2023/02/14 11:14:35;;;;;;;10.52;6.35;;;;;;;9.32;62.42;102324.53;5045644;28;20036;-70
2023/02/14 11:17:28;;;;;;;10.52;6.00;;;;;;;9.45;62.15;102324.63;5047238;28;20025;-70
2023/02/14 11:20:01;;;;;;;11.88;6.43;;;;;;;9.53;61.55;102311.97;5045816;28;20483;-70
2023/02/14 11:22:32;;;;;;;10.55;6.43;;;;;;;9.52;60.34;102313.75;5045765;28;20040;-69
2023/02/14 11:25:17;;;;;;;11.90;6.13;;;;;;;9.49;59.42;102313.94;5048335;28;20029;-69
2023/02/14 11:27:48;;;;;;;11.40;5.65;;;;;;;9.45;60.88;102301.22;5047640;28;20127;-70
2023/02/14 11:30:33;;;;;;;11.35;5.97;;;;;;;9.51;60.35;102301.66;5047381;28;20123;-70
2023/02/14 11:32:59;;;;;;;12.27;6.57;;;;;;;9.58;61.01;102295.16;5045249;28;20050;-69
2023/02/14 11:35:33;;;;;;;10.60;6.20;;;;;;;9.64;60.31;102292.19;5046036;28;20044;-70
2023/02/14 11:38:00;;;;;;;14.55;5.35;;;;;;;9.76;60.09;102285.41;5048874;28;20025;-70
2023/02/14 11:40:32;;;;;;;14.27;6.20;;;;;;;9.80;60.33;102281.66;5047601;28;20049;-70
2023/02/14 11:43:00;;;;;;;11.30;6.18;;;;;;;9.82;60.53;102278.97;5048593;28;20024;-70
2023/02/14 11:45:25;;;;;;;10.95;6.03;;;;;;;9.87;60.39;102282.13;5047374;28;20396;-70
2023/02/14 11:48:16;;;;;;;13.57;7.80;;;;;;;9.94;59.22;102275.56;5048545;28;20031;-70
2023/02/14 11:50:52;;;;;;;8.77;5.70;;;;;;;10.08;59.40;102266.91;5042923;28;20499;-70
2023/02/14 11:53:22;;;;;;;11.23;5.70;;;;;;;10.25;58.64;102262.31;5040053;28;20041;-69
2023/02/14 11:55:54;;;;;;;11.30;6.28;;;;;;;10.22;58.69;102259.91;5034898;28;20021;-70
2023/02/14 11:58:35;;;;;;;9.00;6.03;;;;;;;10.13;58.10;102257.88;5034834;28;20037;-69